HETR

El Tor Airport

Egypt
METAR HETR 240700Z 31017KT 6000 NSC 30/19 Q1012
Observed Flight Rules
May-24 @ 07:00 UTC (an hour ago) Marginal Visual Flight Rules
Wind Visibility Clouds
310° at 17 knots 6,003 meters
  • Clear skies
Temperatures Readings
Current 30°C / 86°F
Dewpoint 19°C / 66°F
Humidity 52%
Altimeter 29.88" Hg
Pressure 1012 hPa
Elevation 35
METAR HETR 240700Z 31017KT 6000 NSC 30/19 Q1012
Observed Flight Rules
May-24 @ 07:00 UTC
(an hour ago)
MVFR
Wind Visibility
310° at 17 knots 6,003 meters
Clouds
  • Clear skies
Temperature Dewpoint
30°C / 86°F 19°C / 66°F
Humidity Altimeter Pressure
52% 29.88" Hg 1012 hPa